Time;durP1;ratioP1;P1;durP2;ratioP2;P2;SDS_P1;SDS_P2;PMS_P1;PMS_P2;Temp;Humidity;BMP_temperature;BMP_pressure;BME280_temperature;BME280_humidity;BME280_pressure;Samples;Min_cycle;Max_cycle;Signal;HPM_P1;HPM_P2
2023/12/20 00:00:00;;;;;;;45.20;15.27;;;;;;;6.90;100.00;101295.34;5014052;28;20031;-82
2023/12/20 00:02:26;;;;;;;39.65;14.82;;;;;;;6.89;100.00;101299.94;5040857;28;20119;-82
2023/12/20 00:04:51;;;;;;;33.60;15.15;;;;;;;6.91;100.00;101316.19;5037091;28;20045;-82
2023/12/20 00:07:16;;;;;;;40.33;14.60;;;;;;;6.81;100.00;101313.09;5039270;28;20120;-83
2023/12/20 00:09:42;;;;;;;35.65;13.60;;;;;;;6.72;100.00;101319.03;5022617;28;20033;-82
2023/12/20 00:12:09;;;;;;;44.17;14.10;;;;;;;6.69;100.00;101331.00;5038524;28;20032;-82
2023/12/20 00:14:35;;;;;;;42.17;12.48;;;;;;;6.70;100.00;101337.31;5043012;28;20021;-82
2023/12/20 00:17:03;;;;;;;44.38;13.57;;;;;;;6.68;100.00;101331.06;5036482;28;20052;-83
2023/12/20 00:19:29;;;;;;;33.53;10.75;;;;;;;6.61;100.00;101330.53;4999487;28;20128;-82
2023/12/20 00:21:54;;;;;;;26.88;9.95;;;;;;;6.51;100.00;101338.31;4995713;28;20194;-82
2023/12/20 00:24:20;;;;;;;35.60;10.40;;;;;;;6.44;100.00;101329.63;5038139;28;20757;-81
2023/12/20 00:26:46;;;;;;;34.17;10.00;;;;;;;6.40;100.00;101328.00;5035569;28;20502;-83
2023/12/20 00:29:12;;;;;;;38.50;10.27;;;;;;;6.34;100.00;101333.78;5040373;28;20408;-82
2023/12/20 00:31:37;;;;;;;40.42;9.40;;;;;;;6.23;100.00;101323.50;5021047;28;20040;-81
2023/12/20 00:34:02;;;;;;;39.60;8.32;;;;;;;6.21;100.00;101330.81;5038747;28;20123;-82
2023/12/20 00:36:28;;;;;;;31.25;7.78;;;;;;;6.13;100.00;101324.06;5051323;28;20384;-83
2023/12/20 00:38:53;;;;;;;38.63;9.70;;;;;;;6.20;100.00;101337.25;5039964;28;20048;-82
2023/12/20 00:41:19;;;;;;;34.92;7.75;;;;;;;6.14;100.00;101333.97;5025219;28;20112;-82
2023/12/20 00:43:45;;;;;;;24.60;7.72;;;;;;;6.16;100.00;101330.19;5042358;28;20041;-83
2023/12/20 00:46:10;;;;;;;35.30;8.43;;;;;;;6.06;100.00;101326.22;5044284;28;20139;-83
2023/12/20 00:48:35;;;;;;;36.72;6.93;;;;;;;6.03;100.00;101321.84;4993510;28;20017;-83
2023/12/20 00:51:01;;;;;;;43.13;6.93;;;;;;;6.02;100.00;101314.63;5023022;28;20119;-83
2023/12/20 00:53:27;;;;;;;31.80;6.85;;;;;;;5.97;100.00;101321.25;5007466;28;20025;-82
2023/12/20 00:55:54;;;;;;;29.23;5.20;;;;;;;5.95;100.00;101321.31;5050232;28;20029;-83
2023/12/20 00:58:20;;;;;;;28.95;5.95;;;;;;;5.86;100.00;101314.50;5043054;28;20041;-83
2023/12/20 01:00:46;;;;;;;31.60;5.07;;;;;;;5.80;100.00;101317.53;5004726;28;20029;-83
2023/12/20 01:03:15;;;;;;;40.47;6.63;;;;;;;5.79;100.00;101313.09;5011621;28;20029;-83
2023/12/20 01:05:41;;;;;;;28.83;5.22;;;;;;;5.75;100.00;101316.91;5049825;28;20036;-82
2023/12/20 01:08:06;;;;;;;31.00;5.28;;;;;;;5.74;100.00;101322.41;5012815;28;20036;-83
2023/12/20 01:10:32;;;;;;;24.13;5.68;;;;;;;5.65;100.00;101319.22;5046333;28;20036;-82
2023/12/20 01:12:57;;;;;;;21.92;4.28;;;;;;;5.69;100.00;101328.13;5021563;28;20041;-82
2023/12/20 01:15:23;;;;;;;36.00;4.47;;;;;;;5.62;100.00;101322.09;5035048;28;20052;-83
2023/12/20 01:17:49;;;;;;;28.52;4.25;;;;;;;5.56;100.00;101316.09;5038663;28;20402;-83
2023/12/20 01:20:16;;;;;;;30.65;3.70;;;;;;;5.56;100.00;101319.72;5003269;28;20063;-82
2023/12/20 01:22:45;;;;;;;35.63;3.58;;;;;;;5.51;100.00;101319.06;5041648;28;20063;-83
2023/12/20 01:25:11;;;;;;;37.45;4.38;;;;;;;5.44;100.00;101334.75;5025410;28;20053;-82
2023/12/20 01:27:40;;;;;;;32.65;3.10;;;;;;;5.42;100.00;101327.66;5054200;28;20104;-82
2023/12/20 01:30:06;;;;;;;25.17;3.35;;;;;;;5.47;100.00;101336.44;5019747;28;20035;-82
2023/12/20 01:32:31;;;;;;;28.00;3.60;;;;;;;5.46;100.00;101335.59;5050626;28;20120;-82
2023/12/20 01:34:58;;;;;;;20.85;3.25;;;;;;;5.42;100.00;101331.25;5021903;28;20114;-83
2023/12/20 01:37:29;;;;;;;17.58;3.58;;;;;;;5.39;100.00;101327.81;5024453;28;20505;-83
2023/12/20 01:39:54;;;;;;;15.60;2.75;;;;;;;5.39;100.00;101320.53;5055680;28;20032;-82
2023/12/20 01:42:19;;;;;;;28.95;3.38;;;;;;;5.35;100.00;101329.81;5037460;28;20105;-84
2023/12/20 01:44:45;;;;;;;25.75;3.55;;;;;;;5.29;100.00;101325.53;5018429;28;20143;-84
2023/12/20 01:47:12;;;;;;;23.35;3.83;;;;;;;5.28;100.00;101331.94;5055272;28;20444;-83
2023/12/20 01:49:37;;;;;;;22.98;3.97;;;;;;;5.26;100.00;101339.28;5054740;28;20032;-84
2023/12/20 01:52:03;;;;;;;30.67;3.28;;;;;;;5.21;100.00;101344.03;5020486;28;20029;-84
2023/12/20 01:54:29;;;;;;;24.98;3.15;;;;;;;5.22;100.00;101331.38;5043916;28;20082;-84
2023/12/20 01:56:55;;;;;;;20.83;2.67;;;;;;;5.13;100.00;101330.88;5034634;28;20387;-84
2023/12/20 01:59:21;;;;;;;25.23;3.65;;;;;;;5.21;100.00;101337.75;5037325;28;20115;-84
2023/12/20 02:01:47;;;;;;;32.85;4.05;;;;;;;5.17;100.00;101328.88;5026011;28;20032;-84
2023/12/20 02:04:12;;;;;;;19.90;2.80;;;;;;;5.15;100.00;101330.78;5021133;28;20033;-84
2023/12/20 02:06:40;;;;;;;25.35;3.20;;;;;;;5.14;100.00;101329.88;5017043;28;20068;-84
2023/12/20 02:09:07;;;;;;;21.73;3.38;;;;;;;5.15;100.00;101328.06;5012596;28;20094;-84
2023/12/20 02:11:33;;;;;;;17.30;2.60;;;;;;;5.19;100.00;101336.94;5049375;28;20033;-84
2023/12/20 02:13:58;;;;;;;26.83;3.40;;;;;;;5.21;100.00;101327.75;5026968;28;20039;-84
2023/12/20 02:16:24;;;;;;;21.38;3.08;;;;;;;5.20;100.00;101328.72;5051348;28;20028;-84
2023/12/20 02:18:49;;;;;;;17.00;2.85;;;;;;;5.19;100.00;101332.38;5000294;28;20040;-84
2023/12/20 02:21:18;;;;;;;18.55;3.15;;;;;;;5.19;100.00;101331.53;5038057;28;20024;-84
2023/12/20 02:23:43;;;;;;;19.40;3.00;;;;;;;5.24;100.00;101341.19;5043738;28;20090;-84
2023/12/20 02:26:09;;;;;;;24.17;4.25;;;;;;;5.28;100.00;101339.19;5019167;28;20026;-84
2023/12/20 02:28:34;;;;;;;28.35;4.05;;;;;;;5.19;100.00;101323.38;5005605;28;20036;-84
2023/12/20 02:31:00;;;;;;;19.27;3.30;;;;;;;5.21;100.00;101332.31;5032690;28;20502;-84
2023/12/20 02:33:25;;;;;;;25.73;3.10;;;;;;;5.23;100.00;101333.09;4997838;28;20090;-85
2023/12/20 02:35:52;;;;;;;30.80;3.88;;;;;;;5.17;100.00;101328.00;5024567;28;20119;-84
2023/12/20 02:38:20;;;;;;;30.15;2.95;;;;;;;5.23;100.00;101325.88;5031671;28;20029;-84
2023/12/20 02:40:45;;;;;;;25.05;3.85;;;;;;;5.25;100.00;101332.09;5004033;28;20024;-84
2023/12/20 02:43:11;;;;;;;30.25;3.40;;;;;;;5.22;100.00;101325.94;5033184;28;20036;-84
2023/12/20 02:45:38;;;;;;;27.05;4.40;;;;;;;5.23;100.00;101323.16;5011010;28;20061;-84
2023/12/20 02:48:04;;;;;;;29.02;3.90;;;;;;;5.28;100.00;101339.19;5038905;28;20021;-84
2023/12/20 02:50:30;;;;;;;25.30;4.90;;;;;;;5.25;100.00;101340.25;5011741;28;20782;-84
2023/12/20 02:52:55;;;;;;;33.30;4.35;;;;;;;5.25;100.00;101326.66;4987118;28;20049;-84
2023/12/20 02:55:20;;;;;;;29.50;4.30;;;;;;;5.26;100.00;101328.44;4977829;28;20453;-84
2023/12/20 02:57:46;;;;;;;13.95;3.50;;;;;;;5.26;100.00;101332.97;5016164;28;20040;-84
2023/12/20 03:00:14;;;;;;;22.80;3.50;;;;;;;5.25;100.00;101342.94;4999277;28;20839;-84
2023/12/20 03:02:40;;;;;;;26.25;3.03;;;;;;;5.23;100.00;101339.44;5001306;28;20045;-84
2023/12/20 03:05:06;;;;;;;19.30;3.20;;;;;;;5.31;100.00;101344.47;5008991;28;20032;-84
2023/12/20 03:07:31;;;;;;;17.00;3.17;;;;;;;5.35;100.00;101337.94;5001947;28;20041;-84
2023/12/20 03:09:57;;;;;;;33.55;3.40;;;;;;;5.28;100.00;101328.31;4999199;28;20033;-84
2023/12/20 03:12:22;;;;;;;21.60;3.30;;;;;;;5.25;100.00;101332.09;4995434;28;20025;-84
2023/12/20 03:14:49;;;;;;;32.47;3.88;;;;;;;5.23;100.00;101330.41;4984132;28;20026;-84
2023/12/20 03:17:14;;;;;;;19.27;3.38;;;;;;;5.29;100.00;101313.81;5019805;28;20018;-84
2023/12/20 03:19:40;;;;;;;23.83;3.85;;;;;;;5.31;100.00;101322.75;5012852;28;20060;-83
2023/12/20 03:22:05;;;;;;;22.63;3.35;;;;;;;5.27;100.00;101322.03;4985873;28;20041;-83
2023/12/20 03:24:31;;;;;;;25.80;4.30;;;;;;;5.30;100.00;101310.16;5020110;28;20021;-83
2023/12/20 03:26:56;;;;;;;25.85;3.38;;;;;;;5.31;100.00;101306.47;5007974;28;20064;-83
2023/12/20 03:29:23;;;;;;;24.40;3.30;;;;;;;5.23;100.00;101312.28;4985399;28;20203;-82
2023/12/20 03:31:48;;;;;;;21.88;3.65;;;;;;;5.28;100.00;101312.94;5015240;28;20044;-83
2023/12/20 03:34:14;;;;;;;23.30;3.20;;;;;;;5.30;100.00;101311.03;4996471;28;20034;-83
2023/12/20 03:36:40;;;;;;;17.67;3.38;;;;;;;5.30;100.00;101311.03;4985708;28;20033;-83
2023/12/20 03:39:05;;;;;;;17.42;4.32;;;;;;;5.34;100.00;101314.47;5022269;28;20099;-83
2023/12/20 03:41:30;;;;;;;26.55;3.95;;;;;;;5.39;100.00;101312.38;5020757;28;20406;-82
2023/12/20 03:43:56;;;;;;;25.38;3.20;;;;;;;5.41;100.00;101313.22;4999927;28;20029;-82
2023/12/20 03:46:23;;;;;;;27.90;3.70;;;;;;;5.39;100.00;101300.66;4986032;28;20058;-83
2023/12/20 03:48:48;;;;;;;32.88;4.15;;;;;;;5.42;100.00;101304.09;4987430;28;20095;-83
2023/12/20 03:51:13;;;;;;;27.23;4.63;;;;;;;5.32;100.00;101303.66;4987366;28;20045;-83
2023/12/20 03:53:40;;;;;;;24.13;4.53;;;;;;;5.27;100.00;101299.44;5019916;28;20452;-83
2023/12/20 03:56:06;;;;;;;28.88;5.07;;;;;;;5.25;100.00;101298.66;5038226;28;20036;-83
2023/12/20 03:58:31;;;;;;;28.65;5.97;;;;;;;5.22;100.00;101299.66;5036824;28;20029;-83
2023/12/20 04:00:57;;;;;;;30.30;4.80;;;;;;;5.17;100.00;101299.00;4995303;28;20044;-83
2023/12/20 04:03:23;;;;;;;32.85;5.35;;;;;;;5.10;100.00;101306.59;5001833;28;20033;-84
2023/12/20 04:05:49;;;;;;;27.90;4.88;;;;;;;5.09;100.00;101304.81;5002236;28;20030;-84
2023/12/20 04:08:14;;;;;;;39.10;6.13;;;;;;;5.06;100.00;101301.38;5015673;28;20038;-83
2023/12/20 04:10:40;;;;;;;25.48;5.57;;;;;;;5.08;100.00;101297.66;4999220;28;20042;-84
2023/12/20 04:13:07;;;;;;;35.13;7.18;;;;;;;5.15;100.00;101311.78;4998601;28;20041;-83
2023/12/20 04:15:32;;;;;;;39.42;7.05;;;;;;;5.19;100.00;101301.66;5004756;28;20083;-84
2023/12/20 04:17:57;;;;;;;41.58;7.03;;;;;;;5.20;100.00;101303.41;4980509;28;20144;-84
2023/12/20 04:20:23;;;;;;;38.17;6.38;;;;;;;5.21;100.00;101316.03;5000478;28;20159;-84
2023/12/20 04:22:48;;;;;;;26.92;5.57;;;;;;;5.20;100.00;101308.81;4977513;28;20041;-84
2023/12/20 04:25:14;;;;;;;29.35;5.80;;;;;;;5.14;100.00;101305.47;4984826;28;20391;-83
2023/12/20 04:27:42;;;;;;;24.13;5.55;;;;;;;5.28;100.00;101321.09;5017676;28;20110;-84
2023/12/20 04:30:09;;;;;;;33.00;6.50;;;;;;;5.24;100.00;101322.19;5005642;28;20033;-83
2023/12/20 04:32:34;;;;;;;36.55;6.35;;;;;;;5.26;100.00;101320.28;5003020;28;20060;-85
2023/12/20 04:35:00;;;;;;;33.90;5.97;;;;;;;5.25;100.00;101314.94;5013879;28;20063;-83
2023/12/20 04:37:26;;;;;;;36.83;6.55;;;;;;;5.28;100.00;101309.31;5003743;28;20527;-83
2023/12/20 04:39:52;;;;;;;34.17;6.10;;;;;;;5.31;100.00;101315.50;4993662;28;20628;-83
2023/12/20 04:42:18;;;;;;;30.45;5.65;;;;;;;5.33;100.00;101310.88;5021631;28;20057;-84
2023/12/20 04:44:45;;;;;;;25.45;6.05;;;;;;;5.33;100.00;101304.56;5008703;28;20088;-83
2023/12/20 04:47:11;;;;;;;36.78;6.63;;;;;;;5.36;100.00;101304.38;5035419;28;20037;-83
2023/12/20 04:49:36;;;;;;;50.03;6.95;;;;;;;5.43;100.00;101305.00;5037716;28;20029;-83
2023/12/20 04:52:02;;;;;;;35.85;6.15;;;;;;;5.46;100.00;101311.13;5028325;28;20039;-83
2023/12/20 04:54:27;;;;;;;31.45;5.75;;;;;;;5.48;100.00;101303.78;5029651;28;20033;-83
2023/12/20 04:56:54;;;;;;;31.80;6.18;;;;;;;5.51;100.00;101305.47;5004959;28;20049;-84
2023/12/20 04:59:19;;;;;;;34.78;6.15;;;;;;;5.55;100.00;101309.78;5055047;28;20032;-84
2023/12/20 05:01:45;;;;;;;31.25;5.97;;;;;;;5.59;100.00;101305.97;5040555;28;20080;-83
2023/12/20 05:04:10;;;;;;;42.10;5.53;;;;;;;5.58;100.00;101298.75;5023413;28;20523;-83
2023/12/20 05:06:35;;;;;;;35.13;6.38;;;;;;;5.61;100.00;101308.59;5022193;28;20082;-83
2023/12/20 05:09:01;;;;;;;27.85;5.70;;;;;;;5.62;100.00;101300.34;5048382;28;20033;-83
2023/12/20 05:11:28;;;;;;;25.73;5.30;;;;;;;5.62;100.00;101294.91;5041050;28;20474;-83
2023/12/20 05:13:53;;;;;;;25.92;6.72;;;;;;;5.68;100.00;101305.47;5024496;28;20033;-83
2023/12/20 05:16:19;;;;;;;27.52;5.45;;;;;;;5.71;100.00;101305.31;5019684;28;20563;-82
2023/12/20 05:18:45;;;;;;;40.90;6.38;;;;;;;5.69;100.00;101295.50;5012744;28;20037;-82
2023/12/20 05:21:11;;;;;;;29.20;5.35;;;;;;;5.69;100.00;101285.50;5040805;28;20081;-88
2023/12/20 05:23:36;;;;;;;37.20;6.07;;;;;;;5.71;100.00;101285.44;5035310;28;20036;-88
2023/12/20 05:26:03;;;;;;;28.20;5.38;;;;;;;5.77;100.00;101286.94;5008601;28;20041;-88
2023/12/20 05:28:28;;;;;;;40.67;5.35;;;;;;;5.70;100.00;101281.81;5064862;28;20107;-88
2023/12/20 05:30:54;;;;;;;33.70;5.40;;;;;;;5.77;100.00;101287.84;5023914;28;20426;-88
2023/12/20 05:33:19;;;;;;;23.67;5.60;;;;;;;5.75;100.00;101276.16;5020192;28;20386;-88
2023/12/20 05:35:46;;;;;;;28.88;5.40;;;;;;;5.84;100.00;101283.84;5033198;28;20129;-89
2023/12/20 05:38:11;;;;;;;33.53;5.53;;;;;;;5.83;100.00;101281.19;5033017;28;20056;-89
2023/12/20 05:40:37;;;;;;;35.22;6.43;;;;;;;5.82;100.00;101277.59;5042431;28;20158;-88
2023/12/20 05:43:04;;;;;;;34.17;6.18;;;;;;;5.85;100.00;101288.31;5052351;28;20119;-88
2023/12/20 05:45:29;;;;;;;22.27;4.95;;;;;;;5.83;100.00;101281.19;5043673;28;20044;-87
2023/12/20 05:47:55;;;;;;;21.52;5.38;;;;;;;5.88;100.00;101287.25;5031243;28;20045;-88
2023/12/20 05:50:21;;;;;;;26.58;5.50;;;;;;;5.82;100.00;101291.19;5018325;28;20026;-88
2023/12/20 05:52:46;;;;;;;32.63;5.93;;;;;;;5.85;100.00;101281.97;5032050;28;20047;-88
2023/12/20 05:55:12;;;;;;;19.85;4.75;;;;;;;5.87;100.00;101288.22;5020592;28;20418;-88
2023/12/20 05:57:37;;;;;;;42.58;5.10;;;;;;;5.88;100.00;101287.25;5020927;28;20094;-89
2023/12/20 06:00:04;;;;;;;29.55;5.00;;;;;;;5.88;100.00;101289.97;5019062;28;20048;-89
2023/12/20 06:02:31;;;;;;;34.45;5.68;;;;;;;5.90;100.00;101290.78;5030470;28;20106;-89
2023/12/20 06:04:57;;;;;;;23.80;4.65;;;;;;;5.90;100.00;101298.91;5017188;28;20045;-89
2023/12/20 06:07:23;;;;;;;32.63;5.75;;;;;;;5.91;100.00;101299.81;5045585;28;20402;-89
2023/12/20 06:09:50;;;;;;;32.88;5.20;;;;;;;5.96;100.00;101298.63;5039758;28;20034;-89
2023/12/20 06:12:16;;;;;;;34.28;5.50;;;;;;;5.95;100.00;101294.16;5010050;28;20036;-89
2023/12/20 06:14:41;;;;;;;34.13;5.32;;;;;;;5.97;100.00;101305.84;5022829;28;20029;-88
2023/12/20 06:17:06;;;;;;;34.55;6.05;;;;;;;5.98;100.00;101307.59;5027954;28;20410;-89
2023/12/20 06:19:32;;;;;;;33.50;7.03;;;;;;;5.91;100.00;101311.56;5015556;28;20121;-90
2023/12/20 06:21:57;;;;;;;35.15;5.82;;;;;;;5.90;100.00;101307.06;5035468;28;20029;-89
2023/12/20 06:24:27;;;;;;;31.48;5.90;;;;;;;5.88;100.00;101306.28;5025564;28;20064;-91
2023/12/20 06:26:52;;;;;;;47.13;6.97;;;;;;;5.98;100.00;101304.88;5044637;28;20518;-89
2023/12/20 06:29:17;;;;;;;34.20;6.43;;;;;;;5.94;100.00;101311.41;5032952;28;20509;-89
2023/12/20 06:31:43;;;;;;;35.95;6.88;;;;;;;5.95;100.00;101321.31;5003164;28;20064;-83
2023/12/20 06:34:08;;;;;;;38.22;5.63;;;;;;;5.95;100.00;101329.47;5038781;28;20033;-83
2023/12/20 06:36:34;;;;;;;34.95;5.63;;;;;;;5.96;100.00;101324.91;5033676;28;20148;-83
2023/12/20 06:39:00;;;;;;;22.73;5.85;;;;;;;5.92;100.00;101318.78;5040471;28;20478;-84
2023/12/20 06:41:26;;;;;;;28.98;6.72;;;;;;;5.90;100.00;101317.94;5029301;28;20048;-84
2023/12/20 06:43:54;;;;;;;36.65;5.65;;;;;;;5.88;100.00;101314.44;5000872;28;20037;-84
2023/12/20 06:46:20;;;;;;;39.58;5.20;;;;;;;5.88;100.00;101315.31;5040208;28;20169;-84
2023/12/20 06:48:47;;;;;;;30.25;4.53;;;;;;;5.89;100.00;101316.22;5044267;28;20131;-84
2023/12/20 06:51:17;;;;;;;30.45;4.40;;;;;;;5.81;100.00;101305.72;5049113;28;20398;-86
2023/12/20 06:53:42;;;;;;;26.25;5.30;;;;;;;5.77;100.00;101308.69;5020315;28;20091;-84
2023/12/20 06:56:11;;;;;;;29.38;4.88;;;;;;;5.70;100.00;101308.13;5016639;28;20028;-84
2023/12/20 06:58:37;;;;;;;31.83;5.07;;;;;;;5.65;100.00;101315.63;5057597;28;20025;-85
2023/12/20 07:01:10;;;;;;;26.80;5.03;;;;;;;5.63;100.00;101307.56;5020491;28;20029;-86
2023/12/20 07:03:35;;;;;;;34.13;4.85;;;;;;;5.66;100.00;101301.97;5039990;28;20029;-86
2023/12/20 07:06:01;;;;;;;18.95;3.95;;;;;;;5.66;100.00;101301.09;5019313;28;20402;-87
2023/12/20 07:08:26;;;;;;;27.85;4.50;;;;;;;5.68;100.00;101304.59;5038013;28;20037;-85
2023/12/20 07:10:52;;;;;;;22.08;3.88;;;;;;;5.67;100.00;101309.19;5017766;28;20112;-85
2023/12/20 07:13:18;;;;;;;25.88;5.07;;;;;;;5.67;100.00;101316.41;5018709;28;20037;-85
2023/12/20 07:15:43;;;;;;;25.15;4.05;;;;;;;5.65;100.00;101304.75;5053370;28;20036;-85
2023/12/20 07:18:09;;;;;;;22.77;3.78;;;;;;;5.62;100.00;101297.63;5037822;28;20479;-86
2023/12/20 07:20:35;;;;;;;28.90;4.63;;;;;;;5.66;100.00;101301.97;5026185;28;20040;-87
2023/12/20 07:23:00;;;;;;;28.25;4.47;;;;;;;5.66;100.00;101307.41;5029156;28;20037;-85
2023/12/20 07:25:25;;;;;;;37.47;4.38;;;;;;;5.61;100.00;101304.03;5007248;28;20119;-85
2023/12/20 07:27:51;;;;;;;32.97;4.15;;;;;;;5.61;100.00;101298.63;5042796;28;20402;-87
2023/12/20 07:30:18;;;;;;;27.88;3.80;;;;;;;5.62;100.00;101303.06;5043642;28;20041;-84
2023/12/20 07:32:43;;;;;;;28.60;4.05;;;;;;;5.60;100.00;101305.00;5016297;28;20036;-85
2023/12/20 07:35:09;;;;;;;25.23;4.05;;;;;;;5.64;100.00;101301.19;5024786;28;20041;-84
2023/12/20 07:37:34;;;;;;;30.48;4.45;;;;;;;5.71;100.00;101312.59;5009481;28;20036;-85
2023/12/20 07:39:59;;;;;;;23.55;3.78;;;;;;;5.64;100.00;101303.00;5035395;28;20033;-86
2023/12/20 07:42:25;;;;;;;34.83;5.00;;;;;;;5.65;100.00;101312.91;5044864;28;20115;-87
2023/12/20 07:44:50;;;;;;;45.33;6.13;;;;;;;5.65;100.00;101308.34;5031132;28;20033;-86
2023/12/20 07:47:21;;;;;;;27.75;4.85;;;;;;;5.67;100.00;101298.31;4993259;28;20025;-86
2023/12/20 07:49:46;;;;;;;24.67;3.00;;;;;;;5.70;100.00;101300.84;5028978;28;20491;-87
2023/12/20 07:52:12;;;;;;;20.55;3.20;;;;;;;5.74;100.00;101308.84;5029598;28;20076;-85
2023/12/20 07:54:41;;;;;;;26.83;3.70;;;;;;;5.74;100.00;101307.03;4985391;28;20088;-83
2023/12/20 07:57:07;;;;;;;25.85;3.85;;;;;;;5.77;100.00;101295.09;5038293;28;20068;-83
2023/12/20 07:59:33;;;;;;;18.40;4.18;;;;;;;5.81;100.00;101300.28;5042432;28;20034;-84
2023/12/20 08:01:58;;;;;;;42.92;5.00;;;;;;;5.80;100.00;101298.53;5013121;28;20118;-83
2023/12/20 08:04:24;;;;;;;21.48;3.30;;;;;;;5.73;100.00;101294.38;5017245;28;20482;-84
2023/12/20 08:06:50;;;;;;;24.75;4.07;;;;;;;5.76;100.00;101299.66;4999826;28;20529;-83
2023/12/20 08:09:16;;;;;;;21.52;3.72;;;;;;;5.76;100.00;101291.50;5022604;28;20017;-83
2023/12/20 08:11:45;;;;;;;30.13;3.60;;;;;;;5.79;100.00;101293.16;5005890;28;20430;-84
2023/12/20 08:14:11;;;;;;;25.70;4.40;;;;;;;5.76;100.00;101293.34;5007128;28;20064;-84
2023/12/20 08:16:36;;;;;;;31.70;4.05;;;;;;;5.85;100.00;101303.72;5021727;28;20081;-84
2023/12/20 08:19:02;;;;;;;25.38;4.20;;;;;;;5.77;100.00;101317.72;4993473;28;20120;-84
2023/12/20 08:21:28;;;;;;;24.40;3.92;;;;;;;5.75;100.00;101316.91;4991046;28;20030;-84
2023/12/20 08:23:54;;;;;;;22.92;3.88;;;;;;;5.78;100.00;101324.91;4995250;28;20479;-85
2023/12/20 08:26:24;;;;;;;39.28;3.85;;;;;;;5.84;100.00;101326.44;5005126;28;20068;-87
2023/12/20 08:28:50;;;;;;;21.15;3.72;;;;;;;5.88;100.00;101328.03;5029979;28;20025;-87
2023/12/20 08:31:17;;;;;;;17.77;3.20;;;;;;;5.86;100.00;101335.38;5017800;28;20119;-87
2023/12/20 08:33:44;;;;;;;31.77;3.78;;;;;;;5.87;100.00;101332.59;5027779;28;20079;-85
2023/12/20 08:36:10;;;;;;;34.78;4.22;;;;;;;5.91;100.00;101324.28;5013533;28;20035;-87
2023/12/20 08:38:36;;;;;;;29.88;4.20;;;;;;;5.92;100.00;101326.03;5010719;28;20032;-86
2023/12/20 08:41:04;;;;;;;24.13;3.47;;;;;;;5.93;100.00;101330.50;4992999;28;20022;-86
2023/12/20 08:43:36;;;;;;;30.17;3.92;;;;;;;5.93;100.00;101325.06;5029249;28;20470;-86
2023/12/20 08:46:02;;;;;;;28.52;3.65;;;;;;;5.95;100.00;101313.19;5018705;28;20407;-87
2023/12/20 08:48:28;;;;;;;23.73;4.00;;;;;;;5.94;100.00;101325.00;4992257;28;20024;-87
2023/12/20 08:50:56;;;;;;;20.90;4.13;;;;;;;5.95;100.00;101307.75;5033701;28;20033;-87
2023/12/20 08:53:23;;;;;;;31.15;3.78;;;;;;;5.90;100.00;101312.50;5023545;28;20031;-87
2023/12/20 08:55:48;;;;;;;34.65;4.20;;;;;;;5.95;100.00;101298.69;5030825;28;20033;-87
2023/12/20 08:58:14;;;;;;;20.35;3.42;;;;;;;5.99;100.00;101289.47;4986260;28;20041;-87
2023/12/20 09:00:40;;;;;;;25.23;3.20;;;;;;;5.93;100.00;101287.91;4994551;28;20120;-87
2023/12/20 09:03:05;;;;;;;18.23;3.45;;;;;;;5.97;100.00;101285.91;5010424;28;20073;-87
2023/12/20 09:05:31;;;;;;;24.75;3.22;;;;;;;6.00;100.00;101291.19;5021877;28;20033;-88
2023/12/20 09:07:56;;;;;;;23.40;3.70;;;;;;;6.03;100.00;101288.31;5004273;28;20086;-88
2023/12/20 09:10:22;;;;;;;23.30;3.60;;;;;;;5.99;100.00;101290.31;5007457;28;20025;-88
2023/12/20 09:12:51;;;;;;;22.23;3.50;;;;;;;6.02;100.00;101287.44;5029255;28;20035;-88
2023/12/20 09:15:17;;;;;;;29.70;4.75;;;;;;;6.02;100.00;101290.16;5020897;28;20083;-87
2023/12/20 09:17:43;;;;;;;18.30;4.22;;;;;;;6.04;100.00;101299.13;5047045;28;20086;-88
2023/12/20 09:20:09;;;;;;;20.75;3.30;;;;;;;5.99;100.00;101292.19;5007881;28;20037;-87
2023/12/20 09:22:35;;;;;;;24.67;3.95;;;;;;;6.00;100.00;101297.53;4985956;28;20117;-87
2023/12/20 09:25:01;;;;;;;28.88;3.80;;;;;;;6.00;100.00;101308.41;4989660;28;20497;-86
2023/12/20 09:27:27;;;;;;;26.83;3.55;;;;;;;6.04;100.00;101311.84;5034949;28;20025;-87
2023/12/20 09:29:53;;;;;;;28.48;3.63;;;;;;;6.02;100.00;101292.88;5001187;28;20174;-86
2023/12/20 09:32:22;;;;;;;18.67;4.03;;;;;;;6.10;100.00;101299.75;5010868;28;20467;-88
2023/12/20 09:34:48;;;;;;;22.95;3.78;;;;;;;6.06;100.00;101308.06;5013825;28;20030;-86
2023/12/20 09:37:13;;;;;;;21.40;3.78;;;;;;;6.14;100.00;101301.34;5008237;28;20046;-88
2023/12/20 09:39:40;;;;;;;21.58;3.13;;;;;;;6.11;100.00;101309.66;4992874;28;20025;-89
2023/12/20 09:42:06;;;;;;;21.88;3.63;;;;;;;6.21;100.00;101311.78;5003148;28;20119;-89
2023/12/20 09:44:34;;;;;;;23.23;3.83;;;;;;;6.20;100.00;101296.47;5033739;28;20029;-88
2023/12/20 09:47:02;;;;;;;23.45;3.80;;;;;;;6.24;100.00;101295.31;5042872;28;20079;-89
2023/12/20 09:49:30;;;;;;;29.98;3.80;;;;;;;6.22;100.00;101299.09;5055849;28;20446;-88
2023/12/20 09:51:57;;;;;;;21.08;3.33;;;;;;;6.21;100.00;101286.47;5035906;28;20043;-88
2023/12/20 09:54:23;;;;;;;31.35;3.70;;;;;;;6.30;100.00;101299.56;5029755;28;20110;-88
2023/12/20 09:56:50;;;;;;;23.08;3.75;;;;;;;6.32;100.00;101292.19;5059140;28;20036;-88
2023/12/20 09:59:16;;;;;;;20.77;2.90;;;;;;;6.31;100.00;101290.44;5028556;28;20041;-88
2023/12/20 10:01:42;;;;;;;21.70;3.80;;;;;;;6.34;100.00;101301.13;5023947;28;20033;-94
2023/12/20 10:04:12;;;;;;;23.48;3.20;;;;;;;6.40;100.00;101297.22;5025892;28;20036;-89
2023/12/20 10:06:41;;;;;;;20.75;3.55;;;;;;;6.39;100.00;101292.75;5023901;28;20147;-88
2023/12/20 10:11:42;;;;;;;20.35;4.25;;;;;;;6.48;100.00;101288.63;5692953;23;20054;-87
2023/12/20 10:14:07;;;;;;;22.52;3.72;;;;;;;6.48;100.00;101289.53;4971029;28;20033;-86
2023/12/20 10:16:33;;;;;;;19.27;3.45;;;;;;;6.55;100.00;101282.78;4969259;28;20057;-85
2023/12/20 10:19:01;;;;;;;17.40;3.00;;;;;;;6.63;100.00;101287.78;4963447;28;20070;-84
2023/12/20 10:21:27;;;;;;;31.75;3.78;;;;;;;6.62;100.00;101286.03;5008089;28;20037;-84
2023/12/20 10:23:54;;;;;;;35.70;4.70;;;;;;;6.56;100.00;101268.22;5027834;28;20029;-84
2023/12/20 10:26:21;;;;;;;16.23;3.25;;;;;;;6.62;100.00;101280.59;5008770;28;20026;-86
2023/12/20 10:28:50;;;;;;;14.10;3.45;;;;;;;6.67;100.00;101273.03;4973455;28;20537;-84
2023/12/20 10:31:33;;;;;;;25.42;4.05;;;;;;;6.73;100.00;101286.31;5005095;28;20410;-83
2023/12/20 10:33:59;;;;;;;16.50;3.47;;;;;;;6.83;100.00;101278.50;5004325;28;20022;-84
2023/12/20 10:36:26;;;;;;;19.85;4.00;;;;;;;6.77;100.00;101290.63;5029477;28;20021;-85
2023/12/20 10:38:53;;;;;;;21.50;3.33;;;;;;;6.79;100.00;101291.41;5025203;28;20048;-87
2023/12/20 10:41:32;;;;;;;19.30;3.83;;;;;;;6.76;100.00;101294.31;5025035;28;20019;-86
2023/12/20 10:44:00;;;;;;;24.75;4.53;;;;;;;6.77;100.00;101295.16;4997047;28;20022;-86
2023/12/20 10:46:30;;;;;;;22.58;4.03;;;;;;;6.80;100.00;101292.28;5006767;28;20037;-85
2023/12/20 10:48:57;;;;;;;21.08;4.25;;;;;;;6.74;100.00;101281.72;4983535;28;20017;-85
2023/12/20 10:51:24;;;;;;;25.95;4.05;;;;;;;6.80;100.00;101263.25;5001055;28;20026;-85
2023/12/20 10:53:50;;;;;;;25.58;4.90;;;;;;;6.80;100.00;101254.19;4991055;28;20029;-85
2023/12/20 10:56:20;;;;;;;26.33;4.25;;;;;;;6.84;100.00;101254.88;4973734;28;20083;-86
2023/12/20 10:58:47;;;;;;;16.00;3.33;;;;;;;6.83;100.00;101242.25;4976117;28;20465;-85
2023/12/20 11:01:18;;;;;;;23.38;3.85;;;;;;;6.84;100.00;101255.78;4976675;28;20052;-85
2023/12/20 11:03:53;;;;;;;26.55;3.92;;;;;;;6.81;100.00;101255.94;5000235;28;20029;-86
2023/12/20 11:06:35;;;;;;;24.55;3.55;;;;;;;6.86;100.00;101259.28;4978322;28;20034;-85
2023/12/20 11:09:22;;;;;;;18.65;3.88;;;;;;;6.85;100.00;101256.66;5026414;28;20009;-84
2023/12/20 11:12:13;;;;;;;25.75;4.10;;;;;;;6.80;100.00;101238.75;5010916;28;20132;-84
2023/12/20 11:14:47;;;;;;;23.30;3.20;;;;;;;6.80;100.00;101246.00;5032031;28;20025;-85